El-Giza, Egypt
Current Conditions -  °F | °C
As of 12:30 PM on Friday 31 Oct 2014 (Local Time) from HECA Reporting Station
Scattered Clouds Scattered Clouds  
Wind Chill: 75°   Ceiling: Unl
Heat Index: 75°   Visibility: 6mi
Dew Point: 52°   Wind: 12mph
Humidity: 44%   Direction: 270°W
Pressure: 29.97"   Gusts: NA
Location:  30.08°N, 31.21°E
Report Text: HECA 311030Z 27010KT 9999 SCT025 24/11 Q1015 NOSIG
Loading
Personal Weather Stations






























Interactive Weather Map
Tropical Storm Tracking
New forecast layout! Learn more

10-Day Weather Forecast

Advertisements
Track Severe Weather on mobile